sensor_id;sensor_type;location;lat;lon;timestamp;P1;durP1;ratioP1;P2;durP2;ratioP2
19095;SDS011;9680;52.520;13.332;2022-07-04T00:00:35;3.42;;;2.83;;
19095;SDS011;9680;52.520;13.332;2022-07-04T00:03:00;4.07;;;3.10;;
19095;SDS011;9680;52.520;13.332;2022-07-04T00:05:25;3.42;;;2.90;;
19095;SDS011;9680;52.520;13.332;2022-07-04T00:07:51;5.90;;;3.00;;
19095;SDS011;9680;52.520;13.332;2022-07-04T00:10:19;4.90;;;2.55;;
19095;SDS011;9680;52.520;13.332;2022-07-04T00:12:47;6.80;;;3.38;;
19095;SDS011;9680;52.520;13.332;2022-07-04T00:15:13;4.45;;;3.05;;
19095;SDS011;9680;52.520;13.332;2022-07-04T00:17:39;6.53;;;3.10;;
19095;SDS011;9680;52.520;13.332;2022-07-04T00:20:06;4.78;;;3.17;;
19095;SDS011;9680;52.520;13.332;2022-07-04T00:22:32;4.47;;;3.50;;
19095;SDS011;9680;52.520;13.332;2022-07-04T00:24:58;5.13;;;2.90;;
19095;SDS011;9680;52.520;13.332;2022-07-04T00:27:23;5.18;;;4.00;;
19095;SDS011;9680;52.520;13.332;2022-07-04T00:29:49;7.80;;;3.58;;
19095;SDS011;9680;52.520;13.332;2022-07-04T00:32:15;6.57;;;3.80;;
19095;SDS011;9680;52.520;13.332;2022-07-04T00:34:41;6.97;;;3.65;;
19095;SDS011;9680;52.520;13.332;2022-07-04T00:37:06;4.55;;;3.28;;
19095;SDS011;9680;52.520;13.332;2022-07-04T00:39:32;5.63;;;3.78;;
19095;SDS011;9680;52.520;13.332;2022-07-04T00:41:57;5.05;;;3.70;;
19095;SDS011;9680;52.520;13.332;2022-07-04T00:44:23;8.48;;;3.72;;
19095;SDS011;9680;52.520;13.332;2022-07-04T00:46:48;7.43;;;4.03;;
19095;SDS011;9680;52.520;13.332;2022-07-04T00:49:14;6.13;;;3.70;;
19095;SDS011;9680;52.520;13.332;2022-07-04T00:51:42;6.88;;;3.65;;
19095;SDS011;9680;52.520;13.332;2022-07-04T00:54:10;6.75;;;3.47;;
19095;SDS011;9680;52.520;13.332;2022-07-04T00:56:39;7.18;;;3.65;;
19095;SDS011;9680;52.520;13.332;2022-07-04T00:59:07;9.05;;;3.60;;
19095;SDS011;9680;52.520;13.332;2022-07-04T01:01:33;5.72;;;3.50;;
19095;SDS011;9680;52.520;13.332;2022-07-04T01:04:01;8.20;;;3.35;;
19095;SDS011;9680;52.520;13.332;2022-07-04T01:06:27;5.70;;;3.33;;
19095;SDS011;9680;52.520;13.332;2022-07-04T01:08:52;5.13;;;3.17;;
19095;SDS011;9680;52.520;13.332;2022-07-04T01:11:18;6.57;;;3.20;;
19095;SDS011;9680;52.520;13.332;2022-07-04T01:13:44;4.50;;;3.30;;
19095;SDS011;9680;52.520;13.332;2022-07-04T01:16:10;4.50;;;3.17;;
19095;SDS011;9680;52.520;13.332;2022-07-04T01:18:36;5.18;;;3.42;;
19095;SDS011;9680;52.520;13.332;2022-07-04T01:21:03;5.20;;;3.60;;
19095;SDS011;9680;52.520;13.332;2022-07-04T01:23:29;4.43;;;3.30;;
19095;SDS011;9680;52.520;13.332;2022-07-04T01:25:55;4.10;;;3.50;;
19095;SDS011;9680;52.520;13.332;2022-07-04T01:28:21;4.32;;;3.30;;
19095;SDS011;9680;52.520;13.332;2022-07-04T01:30:47;3.65;;;3.00;;
19095;SDS011;9680;52.520;13.332;2022-07-04T01:33:13;4.90;;;3.55;;
19095;SDS011;9680;52.520;13.332;2022-07-04T01:35:40;5.68;;;3.20;;
19095;SDS011;9680;52.520;13.332;2022-07-04T01:38:05;4.70;;;3.38;;
19095;SDS011;9680;52.520;13.332;2022-07-04T01:40:31;5.28;;;3.72;;
19095;SDS011;9680;52.520;13.332;2022-07-04T01:42:57;5.18;;;3.75;;
19095;SDS011;9680;52.520;13.332;2022-07-04T01:45:23;4.97;;;3.80;;
19095;SDS011;9680;52.520;13.332;2022-07-04T01:47:49;5.40;;;3.90;;
19095;SDS011;9680;52.520;13.332;2022-07-04T01:50:15;7.18;;;4.38;;
19095;SDS011;9680;52.520;13.332;2022-07-04T01:52:41;7.10;;;4.25;;
19095;SDS011;9680;52.520;13.332;2022-07-04T01:55:08;7.00;;;4.53;;
19095;SDS011;9680;52.520;13.332;2022-07-04T01:57:35;7.82;;;4.43;;
19095;SDS011;9680;52.520;13.332;2022-07-04T02:00:01;5.78;;;4.32;;
19095;SDS011;9680;52.520;13.332;2022-07-04T02:02:45;6.63;;;4.35;;
19095;SDS011;9680;52.520;13.332;2022-07-04T02:05:10;5.82;;;4.75;;
19095;SDS011;9680;52.520;13.332;2022-07-04T02:07:36;7.15;;;4.90;;
19095;SDS011;9680;52.520;13.332;2022-07-04T02:10:02;6.93;;;4.90;;
19095;SDS011;9680;52.520;13.332;2022-07-04T02:12:28;8.18;;;5.38;;
19095;SDS011;9680;52.520;13.332;2022-07-04T02:15:12;8.10;;;5.55;;
19095;SDS011;9680;52.520;13.332;2022-07-04T02:17:37;7.45;;;5.50;;
19095;SDS011;9680;52.520;13.332;2022-07-04T02:20:03;9.23;;;5.68;;
19095;SDS011;9680;52.520;13.332;2022-07-04T02:22:30;11.52;;;6.10;;
19095;SDS011;9680;52.520;13.332;2022-07-04T02:24:56;8.63;;;5.78;;
19095;SDS011;9680;52.520;13.332;2022-07-04T02:27:22;9.45;;;5.88;;
19095;SDS011;9680;52.520;13.332;2022-07-04T02:29:47;9.48;;;6.00;;
19095;SDS011;9680;52.520;13.332;2022-07-04T02:32:13;10.15;;;6.00;;
19095;SDS011;9680;52.520;13.332;2022-07-04T02:34:38;9.82;;;6.15;;
19095;SDS011;9680;52.520;13.332;2022-07-04T02:37:04;7.68;;;5.70;;
19095;SDS011;9680;52.520;13.332;2022-07-04T02:39:30;8.50;;;6.15;;
19095;SDS011;9680;52.520;13.332;2022-07-04T02:41:55;10.80;;;7.15;;
19095;SDS011;9680;52.520;13.332;2022-07-04T02:44:21;8.43;;;6.45;;
19095;SDS011;9680;52.520;13.332;2022-07-04T02:46:46;9.18;;;6.93;;
19095;SDS011;9680;52.520;13.332;2022-07-04T02:49:12;7.65;;;6.32;;
19095;SDS011;9680;52.520;13.332;2022-07-04T02:51:37;10.55;;;6.95;;
19095;SDS011;9680;52.520;13.332;2022-07-04T02:54:03;11.70;;;7.25;;
19095;SDS011;9680;52.520;13.332;2022-07-04T02:56:28;8.85;;;6.82;;
19095;SDS011;9680;52.520;13.332;2022-07-04T02:58:54;8.90;;;7.30;;
19095;SDS011;9680;52.520;13.332;2022-07-04T03:01:19;9.02;;;7.25;;
19095;SDS011;9680;52.520;13.332;2022-07-04T03:03:45;9.00;;;7.03;;
19095;SDS011;9680;52.520;13.332;2022-07-04T03:06:11;10.38;;;7.30;;
19095;SDS011;9680;52.520;13.332;2022-07-04T03:08:37;10.32;;;7.90;;
19095;SDS011;9680;52.520;13.332;2022-07-04T03:11:03;13.27;;;7.70;;
19095;SDS011;9680;52.520;13.332;2022-07-04T03:13:31;8.88;;;7.25;;
19095;SDS011;9680;52.520;13.332;2022-07-04T03:15:56;13.48;;;7.53;;
19095;SDS011;9680;52.520;13.332;2022-07-04T03:18:22;11.20;;;7.30;;
19095;SDS011;9680;52.520;13.332;2022-07-04T03:20:47;12.73;;;7.63;;
19095;SDS011;9680;52.520;13.332;2022-07-04T03:23:13;11.32;;;7.45;;
19095;SDS011;9680;52.520;13.332;2022-07-04T03:25:39;10.93;;;7.70;;
19095;SDS011;9680;52.520;13.332;2022-07-04T03:28:05;11.80;;;7.78;;
19095;SDS011;9680;52.520;13.332;2022-07-04T03:30:31;11.18;;;7.90;;
19095;SDS011;9680;52.520;13.332;2022-07-04T03:32:57;8.90;;;7.07;;
19095;SDS011;9680;52.520;13.332;2022-07-04T03:35:23;10.25;;;7.70;;
19095;SDS011;9680;52.520;13.332;2022-07-04T03:37:49;9.82;;;7.30;;
19095;SDS011;9680;52.520;13.332;2022-07-04T03:40:16;11.35;;;7.90;;
19095;SDS011;9680;52.520;13.332;2022-07-04T03:42:41;10.30;;;7.30;;
19095;SDS011;9680;52.520;13.332;2022-07-04T03:45:07;10.43;;;7.65;;
19095;SDS011;9680;52.520;13.332;2022-07-04T03:47:33;11.50;;;8.50;;
19095;SDS011;9680;52.520;13.332;2022-07-04T03:49:58;15.02;;;8.18;;
19095;SDS011;9680;52.520;13.332;2022-07-04T03:52:24;12.27;;;7.78;;
19095;SDS011;9680;52.520;13.332;2022-07-04T03:54:49;12.85;;;8.63;;
19095;SDS011;9680;52.520;13.332;2022-07-04T03:57:15;15.32;;;8.80;;
19095;SDS011;9680;52.520;13.332;2022-07-04T03:59:40;11.43;;;8.65;;
19095;SDS011;9680;52.520;13.332;2022-07-04T04:02:06;13.18;;;9.35;;
19095;SDS011;9680;52.520;13.332;2022-07-04T04:04:31;10.82;;;8.30;;
19095;SDS011;9680;52.520;13.332;2022-07-04T04:07:16;13.63;;;9.18;;
19095;SDS011;9680;52.520;13.332;2022-07-04T04:09:42;13.45;;;9.07;;
19095;SDS011;9680;52.520;13.332;2022-07-04T04:12:07;12.02;;;8.50;;
19095;SDS011;9680;52.520;13.332;2022-07-04T04:14:33;14.30;;;9.02;;
19095;SDS011;9680;52.520;13.332;2022-07-04T04:16:58;14.23;;;9.20;;
19095;SDS011;9680;52.520;13.332;2022-07-04T04:19:25;12.27;;;8.98;;
19095;SDS011;9680;52.520;13.332;2022-07-04T04:21:50;13.40;;;9.25;;
19095;SDS011;9680;52.520;13.332;2022-07-04T04:24:16;12.25;;;9.43;;
19095;SDS011;9680;52.520;13.332;2022-07-04T04:26:41;12.38;;;8.45;;
19095;SDS011;9680;52.520;13.332;2022-07-04T04:29:07;11.80;;;8.43;;
19095;SDS011;9680;52.520;13.332;2022-07-04T04:31:32;12.40;;;8.70;;
19095;SDS011;9680;52.520;13.332;2022-07-04T04:33:58;11.90;;;9.13;;
19095;SDS011;9680;52.520;13.332;2022-07-04T04:36:23;12.80;;;8.70;;
19095;SDS011;9680;52.520;13.332;2022-07-04T04:38:49;11.80;;;8.27;;
19095;SDS011;9680;52.520;13.332;2022-07-04T04:41:14;12.07;;;8.13;;
19095;SDS011;9680;52.520;13.332;2022-07-04T04:43:41;13.63;;;8.40;;
19095;SDS011;9680;52.520;13.332;2022-07-04T04:46:07;10.23;;;7.82;;
19095;SDS011;9680;52.520;13.332;2022-07-04T04:48:33;10.65;;;7.22;;
19095;SDS011;9680;52.520;13.332;2022-07-04T04:50:58;12.05;;;8.27;;
19095;SDS011;9680;52.520;13.332;2022-07-04T04:53:24;10.45;;;7.28;;
19095;SDS011;9680;52.520;13.332;2022-07-04T04:55:53;11.52;;;7.13;;
19095;SDS011;9680;52.520;13.332;2022-07-04T04:58:20;11.95;;;7.32;;
19095;SDS011;9680;52.520;13.332;2022-07-04T05:00:46;13.02;;;6.88;;
19095;SDS011;9680;52.520;13.332;2022-07-04T05:03:14;10.27;;;7.30;;
19095;SDS011;9680;52.520;13.332;2022-07-04T05:05:40;9.52;;;6.93;;
19095;SDS011;9680;52.520;13.332;2022-07-04T05:08:06;8.98;;;6.22;;
19095;SDS011;9680;52.520;13.332;2022-07-04T05:10:32;8.73;;;6.22;;
19095;SDS011;9680;52.520;13.332;2022-07-04T05:12:57;7.97;;;6.07;;
19095;SDS011;9680;52.520;13.332;2022-07-04T05:15:23;9.07;;;6.47;;
19095;SDS011;9680;52.520;13.332;2022-07-04T05:17:48;10.27;;;5.85;;
19095;SDS011;9680;52.520;13.332;2022-07-04T05:20:14;9.75;;;6.07;;
19095;SDS011;9680;52.520;13.332;2022-07-04T05:22:39;7.60;;;5.18;;
19095;SDS011;9680;52.520;13.332;2022-07-04T05:25:05;7.10;;;5.03;;
19095;SDS011;9680;52.520;13.332;2022-07-04T05:27:31;8.02;;;4.90;;
19095;SDS011;9680;52.520;13.332;2022-07-04T05:29:57;6.85;;;5.03;;
19095;SDS011;9680;52.520;13.332;2022-07-04T05:32:23;6.00;;;4.50;;
19095;SDS011;9680;52.520;13.332;2022-07-04T05:34:50;6.53;;;5.05;;
19095;SDS011;9680;52.520;13.332;2022-07-04T05:37:15;6.72;;;5.03;;
19095;SDS011;9680;52.520;13.332;2022-07-04T05:39:41;8.98;;;4.70;;
19095;SDS011;9680;52.520;13.332;2022-07-04T05:42:06;5.68;;;4.50;;
19095;SDS011;9680;52.520;13.332;2022-07-04T05:44:32;8.23;;;4.70;;
19095;SDS011;9680;52.520;13.332;2022-07-04T05:46:58;7.72;;;4.07;;
19095;SDS011;9680;52.520;13.332;2022-07-04T05:49:23;9.18;;;4.57;;
19095;SDS011;9680;52.520;13.332;2022-07-04T05:51:48;6.47;;;4.28;;
19095;SDS011;9680;52.520;13.332;2022-07-04T05:54:14;7.20;;;4.10;;
19095;SDS011;9680;52.520;13.332;2022-07-04T05:56:39;5.05;;;3.83;;
19095;SDS011;9680;52.520;13.332;2022-07-04T05:59:07;7.43;;;4.18;;
19095;SDS011;9680;52.520;13.332;2022-07-04T06:01:33;5.00;;;3.58;;
19095;SDS011;9680;52.520;13.332;2022-07-04T06:03:58;4.22;;;3.20;;
19095;SDS011;9680;52.520;13.332;2022-07-04T06:06:24;4.38;;;3.13;;
19095;SDS011;9680;52.520;13.332;2022-07-04T06:08:49;7.90;;;3.30;;
19095;SDS011;9680;52.520;13.332;2022-07-04T06:11:15;3.53;;;3.22;;
19095;SDS011;9680;52.520;13.332;2022-07-04T06:13:42;4.78;;;3.20;;
19095;SDS011;9680;52.520;13.332;2022-07-04T06:16:08;7.03;;;3.03;;
19095;SDS011;9680;52.520;13.332;2022-07-04T06:18:33;5.07;;;2.58;;
19095;SDS011;9680;52.520;13.332;2022-07-04T06:20:59;3.17;;;2.50;;
19095;SDS011;9680;52.520;13.332;2022-07-04T06:23:25;7.40;;;2.47;;
19095;SDS011;9680;52.520;13.332;2022-07-04T06:25:50;2.63;;;2.17;;
19095;SDS011;9680;52.520;13.332;2022-07-04T06:28:16;4.55;;;2.63;;
19095;SDS011;9680;52.520;13.332;2022-07-04T06:30:42;4.93;;;2.50;;
19095;SDS011;9680;52.520;13.332;2022-07-04T06:33:08;9.95;;;2.90;;
19095;SDS011;9680;52.520;13.332;2022-07-04T06:35:33;6.10;;;2.63;;
19095;SDS011;9680;52.520;13.332;2022-07-04T06:38:15;2.90;;;2.20;;
19095;SDS011;9680;52.520;13.332;2022-07-04T06:40:43;2.47;;;1.88;;
19095;SDS011;9680;52.520;13.332;2022-07-04T06:43:09;3.88;;;1.83;;
19095;SDS011;9680;52.520;13.332;2022-07-04T06:45:35;3.13;;;1.70;;
19095;SDS011;9680;52.520;13.332;2022-07-04T06:48:00;2.65;;;1.90;;
19095;SDS011;9680;52.520;13.332;2022-07-04T06:50:27;1.63;;;1.45;;
19095;SDS011;9680;52.520;13.332;2022-07-04T06:52:53;3.20;;;1.90;;
19095;SDS011;9680;52.520;13.332;2022-07-04T06:55:18;4.60;;;1.70;;
19095;SDS011;9680;52.520;13.332;2022-07-04T06:57:44;2.00;;;1.60;;
19095;SDS011;9680;52.520;13.332;2022-07-04T07:00:10;3.13;;;1.60;;
19095;SDS011;9680;52.520;13.332;2022-07-04T07:02:36;1.70;;;1.50;;
19095;SDS011;9680;52.520;13.332;2022-07-04T07:05:02;3.83;;;1.73;;
19095;SDS011;9680;52.520;13.332;2022-07-04T07:07:29;2.55;;;1.80;;
19095;SDS011;9680;52.520;13.332;2022-07-04T07:09:55;2.10;;;1.50;;
19095;SDS011;9680;52.520;13.332;2022-07-04T07:12:21;1.80;;;1.35;;
19095;SDS011;9680;52.520;13.332;2022-07-04T07:14:47;2.70;;;1.38;;
19095;SDS011;9680;52.520;13.332;2022-07-04T07:17:14;2.00;;;1.65;;
19095;SDS011;9680;52.520;13.332;2022-07-04T07:19:41;3.83;;;1.25;;
19095;SDS011;9680;52.520;13.332;2022-07-04T07:22:10;1.60;;;1.40;;
19095;SDS011;9680;52.520;13.332;2022-07-04T07:24:36;2.05;;;1.55;;
19095;SDS011;9680;52.520;13.332;2022-07-04T07:27:01;2.10;;;1.52;;
19095;SDS011;9680;52.520;13.332;2022-07-04T07:29:27;3.58;;;1.40;;
19095;SDS011;9680;52.520;13.332;2022-07-04T07:31:53;2.45;;;1.60;;
19095;SDS011;9680;52.520;13.332;2022-07-04T07:34:19;3.08;;;1.58;;
19095;SDS011;9680;52.520;13.332;2022-07-04T07:36:44;1.85;;;1.15;;
19095;SDS011;9680;52.520;13.332;2022-07-04T07:39:10;2.72;;;1.70;;
19095;SDS011;9680;52.520;13.332;2022-07-04T07:41:35;2.10;;;1.15;;
19095;SDS011;9680;52.520;13.332;2022-07-04T07:44:01;3.92;;;1.45;;
19095;SDS011;9680;52.520;13.332;2022-07-04T07:46:26;5.22;;;1.80;;
19095;SDS011;9680;52.520;13.332;2022-07-04T07:48:52;3.47;;;1.27;;
19095;SDS011;9680;52.520;13.332;2022-07-04T07:51:17;2.75;;;1.10;;
19095;SDS011;9680;52.520;13.332;2022-07-04T07:53:43;2.03;;;0.95;;
19095;SDS011;9680;52.520;13.332;2022-07-04T07:56:09;3.72;;;1.30;;
19095;SDS011;9680;52.520;13.332;2022-07-04T07:58:34;2.70;;;1.08;;
19095;SDS011;9680;52.520;13.332;2022-07-04T08:01:00;1.48;;;1.23;;
19095;SDS011;9680;52.520;13.332;2022-07-04T08:03:27;2.75;;;1.00;;
19095;SDS011;9680;52.520;13.332;2022-07-04T08:06:12;1.80;;;0.90;;
19095;SDS011;9680;52.520;13.332;2022-07-04T08:08:39;0.85;;;0.80;;
19095;SDS011;9680;52.520;13.332;2022-07-04T08:11:05;1.63;;;0.95;;
19095;SDS011;9680;52.520;13.332;2022-07-04T08:13:30;5.43;;;0.90;;
19095;SDS011;9680;52.520;13.332;2022-07-04T08:15:56;1.52;;;0.93;;
19095;SDS011;9680;52.520;13.332;2022-07-04T08:18:22;1.40;;;0.73;;
19095;SDS011;9680;52.520;13.332;2022-07-04T08:20:48;8.63;;;0.90;;
19095;SDS011;9680;52.520;13.332;2022-07-04T08:23:14;1.55;;;0.80;;
19095;SDS011;9680;52.520;13.332;2022-07-04T08:25:40;4.53;;;1.08;;
19095;SDS011;9680;52.520;13.332;2022-07-04T08:28:06;1.67;;;1.10;;
19095;SDS011;9680;52.520;13.332;2022-07-04T08:30:31;4.28;;;1.02;;
19095;SDS011;9680;52.520;13.332;2022-07-04T08:32:57;4.47;;;1.08;;
19095;SDS011;9680;52.520;13.332;2022-07-04T08:35:22;3.33;;;1.15;;
19095;SDS011;9680;52.520;13.332;2022-07-04T08:37:48;2.22;;;1.10;;
19095;SDS011;9680;52.520;13.332;2022-07-04T08:40:20;5.03;;;1.20;;
19095;SDS011;9680;52.520;13.332;2022-07-04T08:42:48;3.72;;;1.20;;
19095;SDS011;9680;52.520;13.332;2022-07-04T08:45:14;2.72;;;1.45;;
19095;SDS011;9680;52.520;13.332;2022-07-04T08:47:42;1.75;;;1.10;;
19095;SDS011;9680;52.520;13.332;2022-07-04T08:50:12;1.73;;;1.25;;
19095;SDS011;9680;52.520;13.332;2022-07-04T08:52:47;2.70;;;1.10;;
19095;SDS011;9680;52.520;13.332;2022-07-04T08:55:18;3.70;;;1.30;;
19095;SDS011;9680;52.520;13.332;2022-07-04T08:58:03;4.30;;;1.30;;
19095;SDS011;9680;52.520;13.332;2022-07-04T09:00:48;1.33;;;1.10;;
19095;SDS011;9680;52.520;13.332;2022-07-04T09:03:15;4.03;;;1.58;;
19095;SDS011;9680;52.520;13.332;2022-07-04T09:05:43;2.05;;;1.25;;
19095;SDS011;9680;52.520;13.332;2022-07-04T09:08:09;5.47;;;1.30;;
19095;SDS011;9680;52.520;13.332;2022-07-04T09:10:35;2.55;;;1.30;;
19095;SDS011;9680;52.520;13.332;2022-07-04T09:13:02;2.97;;;1.02;;
19095;SDS011;9680;52.520;13.332;2022-07-04T09:15:30;2.25;;;1.45;;
19095;SDS011;9680;52.520;13.332;2022-07-04T09:17:57;1.60;;;1.00;;
19095;SDS011;9680;52.520;13.332;2022-07-04T09:20:24;4.70;;;1.20;;
19095;SDS011;9680;52.520;13.332;2022-07-04T09:22:52;4.28;;;1.02;;
19095;SDS011;9680;52.520;13.332;2022-07-04T09:25:19;5.13;;;1.38;;
19095;SDS011;9680;52.520;13.332;2022-07-04T09:27:46;2.97;;;0.90;;
19095;SDS011;9680;52.520;13.332;2022-07-04T09:30:14;2.45;;;1.35;;
19095;SDS011;9680;52.520;13.332;2022-07-04T09:32:50;3.00;;;1.40;;
19095;SDS011;9680;52.520;13.332;2022-07-04T09:35:30;3.33;;;1.38;;
19095;SDS011;9680;52.520;13.332;2022-07-04T09:37:59;4.88;;;1.45;;
19095;SDS011;9680;52.520;13.332;2022-07-04T09:40:33;1.45;;;1.00;;
19095;SDS011;9680;52.520;13.332;2022-07-04T09:43:21;3.28;;;1.33;;
19095;SDS011;9680;52.520;13.332;2022-07-04T09:46:03;2.70;;;1.10;;
19095;SDS011;9680;52.520;13.332;2022-07-04T09:48:50;3.10;;;1.10;;
19095;SDS011;9680;52.520;13.332;2022-07-04T09:51:58;2.13;;;1.17;;
19095;SDS011;9680;52.520;13.332;2022-07-04T09:54:17;1.80;;;1.10;;
19095;SDS011;9680;52.520;13.332;2022-07-04T09:57:00;3.75;;;0.90;;
19095;SDS011;9680;52.520;13.332;2022-07-04T09:59:27;4.95;;;1.10;;
19095;SDS011;9680;52.520;13.332;2022-07-04T10:02:10;1.75;;;1.10;;
19095;SDS011;9680;52.520;13.332;2022-07-04T10:04:49;1.13;;;1.02;;
19095;SDS011;9680;52.520;13.332;2022-07-04T10:07:32;2.78;;;1.23;;
19095;SDS011;9680;52.520;13.332;2022-07-04T10:09:58;3.03;;;0.90;;
19095;SDS011;9680;52.520;13.332;2022-07-04T10:12:27;2.00;;;1.25;;
19095;SDS011;9680;52.520;13.332;2022-07-04T10:14:55;2.47;;;1.20;;
19095;SDS011;9680;52.520;13.332;2022-07-04T10:17:21;2.05;;;1.20;;
19095;SDS011;9680;52.520;13.332;2022-07-04T10:19:47;3.33;;;1.15;;
19095;SDS011;9680;52.520;13.332;2022-07-04T10:22:16;3.35;;;0.93;;
19095;SDS011;9680;52.520;13.332;2022-07-04T10:24:43;1.92;;;0.93;;
19095;SDS011;9680;52.520;13.332;2022-07-04T10:27:09;3.35;;;1.10;;
19095;SDS011;9680;52.520;13.332;2022-07-04T10:29:35;11.65;;;1.30;;
19095;SDS011;9680;52.520;13.332;2022-07-04T10:32:01;1.35;;;1.15;;
19095;SDS011;9680;52.520;13.332;2022-07-04T10:34:27;1.27;;;1.00;;
19095;SDS011;9680;52.520;13.332;2022-07-04T10:36:54;1.42;;;1.00;;
19095;SDS011;9680;52.520;13.332;2022-07-04T10:39:22;1.42;;;1.10;;
19095;SDS011;9680;52.520;13.332;2022-07-04T10:41:56;3.90;;;1.20;;
19095;SDS011;9680;52.520;13.332;2022-07-04T10:44:26;4.55;;;1.08;;
19095;SDS011;9680;52.520;13.332;2022-07-04T10:46:59;1.50;;;0.90;;
19095;SDS011;9680;52.520;13.332;2022-07-04T10:49:26;3.35;;;1.20;;
19095;SDS011;9680;52.520;13.332;2022-07-04T10:52:12;4.38;;;0.98;;
19095;SDS011;9680;52.520;13.332;2022-07-04T10:54:39;1.38;;;1.00;;
19095;SDS011;9680;52.520;13.332;2022-07-04T10:59:35;1.98;;;1.10;;
19095;SDS011;9680;52.520;13.332;2022-07-04T11:16:05;2.50;;;1.13;;
19095;SDS011;9680;52.520;13.332;2022-07-04T11:20:37;4.40;;;1.20;;
19095;SDS011;9680;52.520;13.332;2022-07-04T11:23:10;2.42;;;1.30;;
19095;SDS011;9680;52.520;13.332;2022-07-04T11:25:39;1.98;;;0.90;;
19095;SDS011;9680;52.520;13.332;2022-07-04T11:30:56;1.98;;;1.15;;
19095;SDS011;9680;52.520;13.332;2022-07-04T11:33:24;1.63;;;0.82;;
19095;SDS011;9680;52.520;13.332;2022-07-04T11:36:26;0.90;;;0.80;;
19095;SDS011;9680;52.520;13.332;2022-07-04T11:38:56;2.55;;;1.15;;
19095;SDS011;9680;52.520;13.332;2022-07-04T11:41:27;2.30;;;1.30;;
19095;SDS011;9680;52.520;13.332;2022-07-04T11:44:13;3.30;;;1.00;;
19095;SDS011;9680;52.520;13.332;2022-07-04T11:47:12;2.65;;;1.08;;
19095;SDS011;9680;52.520;13.332;2022-07-04T11:52:14;2.38;;;1.00;;
19095;SDS011;9680;52.520;13.332;2022-07-04T11:54:41;1.88;;;1.00;;
19095;SDS011;9680;52.520;13.332;2022-07-04T11:57:12;2.47;;;1.10;;
19095;SDS011;9680;52.520;13.332;2022-07-04T11:59:41;9.57;;;1.55;;
19095;SDS011;9680;52.520;13.332;2022-07-04T12:02:14;4.93;;;1.17;;
19095;SDS011;9680;52.520;13.332;2022-07-04T12:04:41;1.15;;;0.98;;
19095;SDS011;9680;52.520;13.332;2022-07-04T12:07:12;2.70;;;0.95;;
19095;SDS011;9680;52.520;13.332;2022-07-04T12:09:38;3.53;;;1.20;;
19095;SDS011;9680;52.520;13.332;2022-07-04T12:12:04;2.45;;;1.20;;
19095;SDS011;9680;52.520;13.332;2022-07-04T12:14:30;1.25;;;0.90;;
19095;SDS011;9680;52.520;13.332;2022-07-04T12:19:55;1.80;;;0.88;;
19095;SDS011;9680;52.520;13.332;2022-07-04T12:22:27;2.00;;;0.93;;
19095;SDS011;9680;52.520;13.332;2022-07-04T12:24:58;2.70;;;1.10;;
19095;SDS011;9680;52.520;13.332;2022-07-04T12:27:25;1.10;;;0.80;;
19095;SDS011;9680;52.520;13.332;2022-07-04T12:29:51;3.33;;;1.00;;
19095;SDS011;9680;52.520;13.332;2022-07-04T12:32:18;1.42;;;0.93;;
19095;SDS011;9680;52.520;13.332;2022-07-04T12:34:45;1.58;;;0.95;;
19095;SDS011;9680;52.520;13.332;2022-07-04T12:37:11;1.25;;;1.00;;
19095;SDS011;9680;52.520;13.332;2022-07-04T12:39:39;1.13;;;0.95;;
19095;SDS011;9680;52.520;13.332;2022-07-04T12:44:37;2.30;;;1.02;;
19095;SDS011;9680;52.520;13.332;2022-07-04T12:47:04;3.85;;;0.90;;
19095;SDS011;9680;52.520;13.332;2022-07-04T12:49:31;1.00;;;0.80;;
19095;SDS011;9680;52.520;13.332;2022-07-04T12:52:07;1.30;;;0.80;;
19095;SDS011;9680;52.520;13.332;2022-07-04T12:54:35;5.60;;;0.80;;
19095;SDS011;9680;52.520;13.332;2022-07-04T12:57:10;2.00;;;0.73;;
19095;SDS011;9680;52.520;13.332;2022-07-04T12:59:37;3.22;;;0.80;;
19095;SDS011;9680;52.520;13.332;2022-07-04T13:02:05;4.10;;;0.88;;
19095;SDS011;9680;52.520;13.332;2022-07-04T13:04:31;1.00;;;0.90;;
19095;SDS011;9680;52.520;13.332;2022-07-04T13:06:59;0.90;;;0.80;;
19095;SDS011;9680;52.520;13.332;2022-07-04T13:09:36;3.92;;;0.80;;
19095;SDS011;9680;52.520;13.332;2022-07-04T13:12:01;1.65;;;1.00;;
19095;SDS011;9680;52.520;13.332;2022-07-04T13:14:45;2.50;;;0.80;;
19095;SDS011;9680;52.520;13.332;2022-07-04T13:17:11;4.85;;;1.10;;
19095;SDS011;9680;52.520;13.332;2022-07-04T13:19:36;2.63;;;1.30;;
19095;SDS011;9680;52.520;13.332;2022-07-04T13:22:02;2.50;;;1.00;;
19095;SDS011;9680;52.520;13.332;2022-07-04T13:24:28;6.45;;;1.10;;
19095;SDS011;9680;52.520;13.332;2022-07-04T13:26:53;1.23;;;0.70;;
19095;SDS011;9680;52.520;13.332;2022-07-04T13:29:19;0.70;;;0.70;;
19095;SDS011;9680;52.520;13.332;2022-07-04T13:31:45;9.93;;;1.20;;
19095;SDS011;9680;52.520;13.332;2022-07-04T13:34:10;2.72;;;0.85;;
19095;SDS011;9680;52.520;13.332;2022-07-04T13:36:36;1.92;;;0.90;;
19095;SDS011;9680;52.520;13.332;2022-07-04T13:39:01;2.55;;;0.80;;
19095;SDS011;9680;52.520;13.332;2022-07-04T13:41:30;1.95;;;0.85;;
19095;SDS011;9680;52.520;13.332;2022-07-04T13:43:56;1.58;;;0.80;;
19095;SDS011;9680;52.520;13.332;2022-07-04T13:46:23;2.88;;;0.90;;
19095;SDS011;9680;52.520;13.332;2022-07-04T13:48:49;2.30;;;0.80;;
19095;SDS011;9680;52.520;13.332;2022-07-04T13:51:14;1.00;;;0.80;;
19095;SDS011;9680;52.520;13.332;2022-07-04T13:53:40;1.30;;;0.77;;
19095;SDS011;9680;52.520;13.332;2022-07-04T13:56:05;2.35;;;1.00;;
19095;SDS011;9680;52.520;13.332;2022-07-04T13:58:31;1.15;;;0.82;;
19095;SDS011;9680;52.520;13.332;2022-07-04T14:00:56;2.45;;;0.80;;
19095;SDS011;9680;52.520;13.332;2022-07-04T14:03:22;0.88;;;0.77;;
19095;SDS011;9680;52.520;13.332;2022-07-04T14:05:47;2.50;;;0.73;;
19095;SDS011;9680;52.520;13.332;2022-07-04T14:08:13;1.38;;;0.77;;
19095;SDS011;9680;52.520;13.332;2022-07-04T14:10:39;1.67;;;0.93;;
19095;SDS011;9680;52.520;13.332;2022-07-04T14:13:04;0.90;;;0.80;;
19095;SDS011;9680;52.520;13.332;2022-07-04T14:15:30;2.65;;;0.88;;
19095;SDS011;9680;52.520;13.332;2022-07-04T14:17:55;1.15;;;0.90;;
19095;SDS011;9680;52.520;13.332;2022-07-04T14:20:21;1.83;;;0.85;;
19095;SDS011;9680;52.520;13.332;2022-07-04T14:22:46;4.00;;;1.02;;
19095;SDS011;9680;52.520;13.332;2022-07-04T14:25:12;1.25;;;0.80;;
19095;SDS011;9680;52.520;13.332;2022-07-04T14:27:38;2.20;;;0.90;;
19095;SDS011;9680;52.520;13.332;2022-07-04T14:30:04;2.58;;;1.00;;
19095;SDS011;9680;52.520;13.332;2022-07-04T14:32:30;2.80;;;0.88;;
19095;SDS011;9680;52.520;13.332;2022-07-04T14:34:56;1.88;;;0.90;;
19095;SDS011;9680;52.520;13.332;2022-07-04T14:37:22;1.35;;;0.70;;
19095;SDS011;9680;52.520;13.332;2022-07-04T14:39:47;1.80;;;0.90;;
19095;SDS011;9680;52.520;13.332;2022-07-04T14:42:13;1.73;;;0.75;;
19095;SDS011;9680;52.520;13.332;2022-07-04T14:44:39;2.58;;;1.00;;
19095;SDS011;9680;52.520;13.332;2022-07-04T14:47:05;0.80;;;0.75;;
19095;SDS011;9680;52.520;13.332;2022-07-04T14:49:31;2.63;;;0.98;;
19095;SDS011;9680;52.520;13.332;2022-07-04T14:51:57;3.05;;;0.90;;
19095;SDS011;9680;52.520;13.332;2022-07-04T14:54:22;1.60;;;1.00;;
19095;SDS011;9680;52.520;13.332;2022-07-04T14:56:48;3.88;;;1.00;;
19095;SDS011;9680;52.520;13.332;2022-07-04T14:59:14;3.13;;;1.10;;
19095;SDS011;9680;52.520;13.332;2022-07-04T15:01:39;1.27;;;0.95;;
19095;SDS011;9680;52.520;13.332;2022-07-04T15:04:05;2.72;;;1.00;;
19095;SDS011;9680;52.520;13.332;2022-07-04T15:06:30;1.13;;;0.90;;
19095;SDS011;9680;52.520;13.332;2022-07-04T15:08:56;1.27;;;0.85;;
19095;SDS011;9680;52.520;13.332;2022-07-04T15:11:21;1.10;;;1.00;;
19095;SDS011;9680;52.520;13.332;2022-07-04T15:13:47;1.95;;;0.95;;
19095;SDS011;9680;52.520;13.332;2022-07-04T15:16:12;1.15;;;0.95;;